Time;durP1;ratioP1;P1;durP2;ratioP2;P2;SDS_P1;SDS_P2;PMS_P1;PMS_P2;Temp;Humidity;BMP_temperature;BMP_pressure;BME280_temperature;BME280_humidity;BME280_pressure;Samples;Min_cycle;Max_cycle;Signal;HPM_P1;HPM_P2
2021/04/06 00:00:54;;;;;;;9.10;8.47;;;0.10;99.90;;;;;;5132069;27;20445;-69
2021/04/06 00:03:25;;;;;;;9.60;9.10;;;0.00;99.90;;;;;;5131998;27;20440;-69
2021/04/06 00:05:57;;;;;;;10.13;9.23;;;0.00;99.90;;;;;;5132179;27;20484;-68
2021/04/06 00:08:25;;;;;;;9.27;8.77;;;-0.10;99.90;;;;;;5131781;27;20485;-68
2021/04/06 00:10:55;;;;;;;9.70;9.30;;;-0.10;99.90;;;;;;5131857;27;20481;-68
2021/04/06 00:13:24;;;;;;;10.20;9.80;;;-0.20;99.90;;;;;;5131953;27;20437;-68
2021/04/06 00:15:51;;;;;;;8.80;8.40;;;-0.20;99.90;;;;;;5131925;27;20464;-68
2021/04/06 00:18:19;;;;;;;8.17;7.77;;;-0.20;99.90;;;;;;5131604;27;20451;-67
2021/04/06 00:20:46;;;;;;;8.27;7.87;;;-0.20;99.90;;;;;;5132043;27;20459;-68
2021/04/06 00:23:15;;;;;;;9.10;8.47;;;-0.10;99.90;;;;;;5131587;27;20444;-68
2021/04/06 00:25:44;;;;;;;8.17;7.90;;;-0.10;99.90;;;;;;5131930;27;20451;-68
2021/04/06 00:28:15;;;;;;;8.60;8.20;;;-0.10;99.90;;;;;;5131822;28;20459;-68
2021/04/06 00:30:42;;;;;;;8.80;8.23;;;0.00;99.90;;;;;;5131810;27;20483;-68
2021/04/06 00:33:11;;;;;;;8.70;8.20;;;0.00;99.90;;;;;;5131548;28;20804;-68
2021/04/06 00:35:38;;;;;;;8.97;8.57;;;0.00;99.90;;;;;;5131631;27;20449;-68
2021/04/06 00:38:07;;;;;;;9.60;9.00;;;0.00;99.90;;;;;;5131746;28;20447;-68
2021/04/06 00:40:37;;;;;;;10.30;9.90;;;0.00;99.90;;;;;;5131560;27;20945;-69
2021/04/06 00:43:05;;;;;;;8.33;8.03;;;0.00;99.90;;;;;;5131601;27;20481;-69
2021/04/06 00:45:37;;;;;;;9.77;9.33;;;0.00;99.90;;;;;;5131713;27;20448;-68
2021/04/06 00:48:11;;;;;;;11.20;10.47;;;-0.10;99.90;;;;;;5131770;28;20456;-67
2021/04/06 00:50:39;;;;;;;10.43;9.20;;;-0.30;99.90;;;;;;5131751;27;20575;-68
2021/04/06 00:53:05;;;;;;;9.40;9.10;;;-0.40;99.90;;;;;;5135453;27;20549;-68
2021/04/06 00:55:37;;;;;;;9.17;8.60;;;-0.40;99.90;;;;;;5135404;27;20448;-68
2021/04/06 00:58:08;;;;;;;9.43;9.00;;;-0.30;99.90;;;;;;5135490;27;20444;-67
2021/04/06 01:00:38;;;;;;;9.00;8.50;;;-0.20;99.90;;;;;;5135491;27;20444;-68
2021/04/06 01:03:06;;;;;;;9.73;9.27;;;-0.10;99.90;;;;;;5135170;27;20448;-68
2021/04/06 01:05:34;;;;;;;9.30;8.90;;;0.00;99.90;;;;;;5135456;27;20520;-68
2021/04/06 01:08:04;;;;;;;9.73;9.13;;;-0.10;99.90;;;;;;5135293;27;20444;-69
2021/04/06 01:10:32;;;;;;;9.40;8.70;;;-0.20;99.90;;;;;;5135176;27;20480;-70
2021/04/06 01:13:00;;;;;;;9.60;8.87;;;0.00;99.90;;;;;;5135194;27;20440;-71
2021/04/06 01:15:27;;;;;;;10.10;9.40;;;0.00;99.90;;;;;;5134877;27;20470;-70
2021/04/06 01:17:54;;;;;;;10.77;9.97;;;0.00;99.90;;;;;;5135089;27;20497;-71
2021/04/06 01:20:24;;;;;;;9.47;8.77;;;-0.10;99.90;;;;;;5134656;27;20472;-70
2021/04/06 01:22:56;;;;;;;9.20;8.80;;;0.00;99.90;;;;;;5134904;27;20445;-70
2021/04/06 01:25:28;;;;;;;10.00;9.60;;;-0.10;99.90;;;;;;5134732;27;20551;-70
2021/04/06 01:27:57;;;;;;;10.50;9.70;;;-0.10;99.90;;;;;;5134983;27;20795;-70
2021/04/06 01:30:24;;;;;;;9.00;8.50;;;0.00;99.90;;;;;;5134623;27;20553;-69
2021/04/06 01:32:51;;;;;;;8.90;8.27;;;0.10;99.90;;;;;;5134396;27;20674;-70
2021/04/06 01:35:18;;;;;;;10.00;9.40;;;0.20;99.90;;;;;;5135017;27;20442;-70
2021/04/06 01:37:44;;;;;;;9.53;8.93;;;0.20;99.90;;;;;;5134940;27;20444;-70
2021/04/06 01:40:12;;;;;;;9.20;8.67;;;0.10;99.90;;;;;;5134583;27;20964;-70
2021/04/06 01:42:41;;;;;;;8.90;8.50;;;0.20;99.90;;;;;;5134763;27;20444;-70
2021/04/06 01:45:10;;;;;;;8.73;8.23;;;0.20;99.90;;;;;;5134637;27;20550;-69
2021/04/06 01:47:39;;;;;;;9.83;9.10;;;0.20;99.90;;;;;;5134244;27;20456;-68
2021/04/06 01:50:06;;;;;;;9.90;9.17;;;0.20;99.90;;;;;;5134279;27;20554;-69
2021/04/06 01:52:33;;;;;;;9.30;8.80;;;0.20;99.90;;;;;;5134515;27;20448;-69
2021/04/06 01:55:06;;;;;;;9.30;8.80;;;0.20;99.90;;;;;;5134307;27;21004;-69
2021/04/06 01:57:36;;;;;;;9.77;9.27;;;0.20;99.90;;;;;;5134370;27;20454;-69
2021/04/06 02:00:18;;;;;;;10.13;9.50;;;0.20;99.90;;;;;;5134087;27;20476;-70
2021/04/06 02:02:45;;;;;;;9.93;9.17;;;0.20;99.90;;;;;;5133840;27;20527;-69
2021/04/06 02:05:14;;;;;;;10.63;10.03;;;0.20;99.90;;;;;;5134190;27;20445;-69
2021/04/06 02:07:42;;;;;;;9.90;9.40;;;0.10;99.90;;;;;;5134006;27;20440;-69
2021/04/06 02:10:10;;;;;;;10.23;9.40;;;0.10;99.90;;;;;;5133977;27;20473;-70
2021/04/06 02:12:39;;;;;;;10.07;9.33;;;0.10;99.90;;;;;;5133903;27;20452;-71
2021/04/06 02:15:10;;;;;;;9.20;8.70;;;0.10;99.90;;;;;;5133740;27;20452;-69
2021/04/06 02:17:46;;;;;;;9.40;8.83;;;0.10;99.90;;;;;;5133695;27;20951;-69
2021/04/06 02:20:20;;;;;;;9.80;9.20;;;0.10;99.90;;;;;;5133631;27;20855;-70
2021/04/06 02:22:58;;;;;;;9.23;8.73;;;0.10;99.90;;;;;;5133626;27;20448;-69
2021/04/06 02:25:24;;;;;;;11.27;10.60;;;0.10;99.90;;;;;;5133776;27;20444;-70
2021/04/06 02:27:50;;;;;;;9.70;9.27;;;0.10;99.90;;;;;;5133654;27;20441;-69
2021/04/06 02:30:18;;;;;;;9.67;8.83;;;0.00;99.90;;;;;;5133274;27;20492;-69
2021/04/06 02:32:45;;;;;;;11.27;10.47;;;0.00;99.90;;;;;;5133277;27;20452;-70
2021/04/06 02:35:13;;;;;;;9.30;8.87;;;0.00;99.90;;;;;;5133633;27;20948;-70
2021/04/06 02:37:42;;;;;;;9.90;9.33;;;0.00;99.90;;;;;;5133614;27;20457;-71
2021/04/06 02:40:10;;;;;;;11.70;10.60;;;0.00;99.90;;;;;;5133297;27;20452;-70
2021/04/06 02:42:38;;;;;;;10.10;9.60;;;0.00;99.90;;;;;;5133686;27;20452;-71
2021/04/06 02:45:10;;;;;;;9.50;8.87;;;0.00;99.90;;;;;;5134914;27;20971;-69
2021/04/06 02:47:41;;;;;;;10.40;9.67;;;0.00;99.90;;;;;;5137856;27;20451;-69
2021/04/06 02:50:10;;;;;;;9.97;9.40;;;0.00;99.90;;;;;;5135509;27;21086;-70
2021/04/06 02:52:37;;;;;;;9.80;9.40;;;-0.10;99.90;;;;;;5133374;27;20459;-70
2021/04/06 02:55:05;;;;;;;9.53;9.03;;;-0.10;99.90;;;;;;5133008;27;20440;-70
2021/04/06 02:57:32;;;;;;;9.43;8.83;;;-0.10;99.90;;;;;;5132980;27;20455;-69
2021/04/06 02:59:58;;;;;;;10.73;9.77;;;-0.10;99.90;;;;;;5133084;27;20456;-69
2021/04/06 03:02:25;;;;;;;9.57;8.93;;;0.00;99.90;;;;;;5132938;27;20445;-69
2021/04/06 03:04:52;;;;;;;9.90;9.50;;;0.00;99.90;;;;;;5133121;27;20501;-70
2021/04/06 03:07:23;;;;;;;9.33;8.83;;;0.00;99.90;;;;;;5132826;27;20816;-70
2021/04/06 03:09:51;;;;;;;10.30;9.80;;;0.10;99.90;;;;;;5132791;27;20495;-70
2021/04/06 03:12:17;;;;;;;11.10;10.40;;;0.20;99.90;;;;;;5132906;27;20440;-70
2021/04/06 03:14:47;;;;;;;9.43;8.90;;;0.30;99.90;;;;;;5132050;27;20456;-71
2021/04/06 03:17:13;;;;;;;8.53;8.23;;;0.40;99.90;;;;;;5132719;27;20972;-70
2021/04/06 03:19:39;;;;;;;10.80;10.27;;;0.40;99.90;;;;;;5132559;27;20492;-70
2021/04/06 03:22:07;;;;;;;9.83;9.10;;;0.50;99.90;;;;;;5132323;27;20452;-70
2021/04/06 03:24:34;;;;;;;8.70;8.30;;;0.50;99.90;;;;;;5132625;27;20822;-70
2021/04/06 03:27:01;;;;;;;11.27;10.67;;;0.40;99.90;;;;;;5132599;27;20449;-71
2021/04/06 03:29:29;;;;;;;10.50;9.80;;;0.40;99.90;;;;;;5132540;27;20445;-69
2021/04/06 03:31:56;;;;;;;9.43;9.13;;;0.40;99.90;;;;;;5132423;27;20451;-71
2021/04/06 03:34:22;;;;;;;10.20;9.60;;;0.40;99.90;;;;;;5132347;27;20958;-70
2021/04/06 03:36:49;;;;;;;10.00;9.40;;;0.40;99.90;;;;;;5132121;27;20458;-70
2021/04/06 03:39:16;;;;;;;10.17;9.57;;;0.50;99.90;;;;;;5132420;27;20453;-70
2021/04/06 03:41:42;;;;;;;11.00;10.50;;;0.50;99.90;;;;;;5132413;27;20442;-70
2021/04/06 03:44:10;;;;;;;9.93;9.40;;;0.60;99.90;;;;;;5132336;27;20448;-70
2021/04/06 03:46:38;;;;;;;11.23;10.40;;;0.60;99.90;;;;;;5131967;27;20459;-70
2021/04/06 03:49:15;;;;;;;10.57;9.60;;;0.60;99.90;;;;;;5132264;27;20708;-70
2021/04/06 03:51:49;;;;;;;10.87;10.27;;;0.60;99.90;;;;;;5132137;27;20483;-70
2021/04/06 03:54:33;;;;;;;10.63;10.10;;;0.70;99.90;;;;;;5132146;27;20449;-70
2021/04/06 03:57:00;;;;;;;10.80;10.10;;;0.70;99.90;;;;;;5132103;27;20926;-70
2021/04/06 03:59:29;;;;;;;9.87;9.47;;;0.70;99.90;;;;;;5131984;27;20538;-70
2021/04/06 04:01:56;;;;;;;9.73;9.23;;;0.70;99.90;;;;;;5131955;27;20544;-71
2021/04/06 04:04:23;;;;;;;10.97;10.17;;;0.70;99.90;;;;;;5132111;27;20817;-71
2021/04/06 04:06:49;;;;;;;10.07;9.10;;;0.60;99.90;;;;;;5131783;27;20448;-72
2021/04/06 04:09:15;;;;;;;9.30;8.70;;;0.60;99.90;;;;;;5131964;27;20451;-72
2021/04/06 04:11:42;;;;;;;9.40;8.47;;;0.60;99.90;;;;;;5132074;27;20487;-72
2021/04/06 04:14:09;;;;;;;12.73;9.63;;;0.60;99.90;;;;;;5131843;27;20448;-72
2021/04/06 04:16:36;;;;;;;9.60;8.87;;;0.60;99.90;;;;;;5131830;27;20486;-72
2021/04/06 04:19:04;;;;;;;9.07;8.30;;;0.60;99.90;;;;;;5131522;27;20484;-72
2021/04/06 04:21:30;;;;;;;9.90;9.10;;;0.70;99.90;;;;;;5131522;27;20448;-73
2021/04/06 04:23:56;;;;;;;9.80;9.40;;;0.70;99.90;;;;;;5132001;27;20499;-73
2021/04/06 04:26:22;;;;;;;10.23;9.43;;;0.70;99.90;;;;;;5135158;27;20448;-72
2021/04/06 04:28:49;;;;;;;10.60;9.53;;;0.80;99.90;;;;;;5135864;27;20446;-71
2021/04/06 04:31:16;;;;;;;9.83;8.93;;;0.80;99.90;;;;;;5135757;27;20481;-69
2021/04/06 04:33:42;;;;;;;9.90;9.43;;;0.90;99.90;;;;;;5135662;27;20505;-69
2021/04/06 04:36:09;;;;;;;9.93;9.43;;;0.90;99.90;;;;;;5135876;27;20464;-69
2021/04/06 04:38:35;;;;;;;10.10;9.17;;;0.90;99.90;;;;;;5135776;27;20453;-69
2021/04/06 04:41:01;;;;;;;10.00;9.47;;;0.90;99.90;;;;;;5135711;27;20449;-69
2021/04/06 04:43:27;;;;;;;10.50;10.00;;;0.90;99.90;;;;;;5135247;27;20961;-69
2021/04/06 04:45:54;;;;;;;11.37;10.47;;;0.90;99.90;;;;;;5135425;27;20444;-69
2021/04/06 04:48:20;;;;;;;11.20;10.37;;;0.90;99.90;;;;;;5135549;27;20454;-69
2021/04/06 04:50:47;;;;;;;11.40;10.70;;;0.90;99.90;;;;;;5135216;27;20488;-70
2021/04/06 04:53:13;;;;;;;9.97;9.27;;;0.90;99.90;;;;;;5135700;27;20469;-68
2021/04/06 04:55:39;;;;;;;11.20;10.53;;;0.90;99.90;;;;;;5135263;27;20966;-69
2021/04/06 04:58:05;;;;;;;11.07;10.40;;;1.00;99.90;;;;;;5135285;27;20456;-69
2021/04/06 05:00:32;;;;;;;10.77;9.87;;;0.90;99.90;;;;;;5135616;27;20440;-69
2021/04/06 05:02:59;;;;;;;11.30;10.53;;;0.90;99.90;;;;;;5135435;27;20467;-69
2021/04/06 05:05:25;;;;;;;10.73;10.03;;;0.90;99.90;;;;;;5135302;27;20465;-69
2021/04/06 05:07:52;;;;;;;11.33;10.70;;;0.80;99.90;;;;;;5135218;27;20455;-68
2021/04/06 05:10:18;;;;;;;11.87;11.00;;;0.90;99.90;;;;;;5135157;27;20486;-68
2021/04/06 05:12:47;;;;;;;10.33;9.63;;;0.80;99.90;;;;;;5135138;27;20452;-69
2021/04/06 05:15:13;;;;;;;12.07;11.23;;;0.80;99.90;;;;;;5135111;27;20457;-68
2021/04/06 05:17:39;;;;;;;10.10;9.40;;;0.90;99.90;;;;;;5134680;27;20455;-68
2021/04/06 05:20:09;;;;;;;9.63;9.23;;;0.90;99.90;;;;;;5135322;27;20481;-69
2021/04/06 05:22:36;;;;;;;9.93;9.23;;;0.90;99.90;;;;;;5134827;27;20449;-67
2021/04/06 05:25:03;;;;;;;10.10;9.50;;;1.00;99.90;;;;;;5134559;27;20444;-68
2021/04/06 05:27:29;;;;;;;10.77;10.27;;;1.10;99.90;;;;;;5134736;27;20462;-68
2021/04/06 05:29:56;;;;;;;9.47;8.87;;;1.00;99.90;;;;;;5134795;27;20450;-70
2021/04/06 05:32:22;;;;;;;10.90;10.10;;;1.20;99.90;;;;;;5134386;27;20962;-68
2021/04/06 05:34:48;;;;;;;9.20;8.70;;;1.10;99.90;;;;;;5134233;27;20458;-69
2021/04/06 05:37:16;;;;;;;12.47;11.20;;;1.20;99.90;;;;;;5133660;27;20448;-69
2021/04/06 05:39:42;;;;;;;9.63;8.93;;;1.10;99.90;;;;;;5134688;27;20455;-69
2021/04/06 05:42:11;;;;;;;10.50;9.83;;;1.10;99.90;;;;;;5134992;27;20511;-67
2021/04/06 05:44:40;;;;;;;9.73;9.23;;;1.10;99.90;;;;;;5134973;27;20476;-68
2021/04/06 05:47:14;;;;;;;13.13;11.83;;;1.20;99.90;;;;;;5134230;27;20498;-67
2021/04/06 05:49:40;;;;;;;11.53;10.50;;;1.30;99.90;;;;;;5134317;27;20448;-67
2021/04/06 05:52:06;;;;;;;9.70;9.10;;;1.20;99.90;;;;;;5134395;27;20443;-67
2021/04/06 05:54:33;;;;;;;11.97;10.87;;;1.30;99.90;;;;;;5134324;27;20444;-66
2021/04/06 05:57:00;;;;;;;10.77;10.17;;;1.40;99.90;;;;;;5134388;27;20442;-68
2021/04/06 05:59:26;;;;;;;12.20;10.90;;;1.40;99.90;;;;;;5134042;27;20456;-65
2021/04/06 06:01:52;;;;;;;10.83;9.83;;;1.40;99.90;;;;;;5134427;27;20441;-67
2021/04/06 06:04:19;;;;;;;12.27;11.10;;;1.50;99.90;;;;;;5134037;27;20497;-67
2021/04/06 06:06:46;;;;;;;10.70;9.90;;;1.60;99.90;;;;;;5134019;27;20942;-67
2021/04/06 06:09:13;;;;;;;11.57;10.40;;;1.60;99.90;;;;;;5134062;27;20473;-67
2021/04/06 06:12:00;;;;;;;11.37;10.67;;;1.60;99.90;;;;;;5128324;27;20485;-68
2021/04/06 06:14:32;;;;;;;11.60;11.10;;;1.70;99.90;;;;;;5122905;27;20447;-68
2021/04/06 06:17:12;;;;;;;11.70;11.00;;;1.80;99.90;;;;;;5111766;28;20897;-68
2021/04/06 06:19:38;;;;;;;12.67;11.53;;;1.80;99.90;;;;;;5111383;28;20477;-68
2021/04/06 06:22:11;;;;;;;10.80;10.07;;;2.00;99.90;;;;;;5114814;27;20440;-69
2021/04/06 06:24:39;;;;;;;10.53;9.93;;;2.00;99.90;;;;;;5111703;28;20502;-69
2021/04/06 06:27:32;;;;;;;11.77;10.40;;;2.00;99.90;;;;;;5111637;28;20547;-70
2021/04/06 06:30:19;;;;;;;15.63;10.93;;;2.10;99.90;;;;;;5111524;28;20814;-70
2021/04/06 06:32:45;;;;;;;10.73;9.83;;;2.30;99.90;;;;;;5124258;27;20791;-70
2021/04/06 06:35:11;;;;;;;11.63;10.90;;;2.20;99.90;;;;;;5132970;27;20449;-70
2021/04/06 06:37:38;;;;;;;10.17;9.63;;;2.40;99.90;;;;;;5132504;27;20461;-70
2021/04/06 06:40:05;;;;;;;11.83;11.03;;;2.50;99.90;;;;;;5120120;27;20450;-70
2021/04/06 06:43:22;;;;;;;10.43;9.97;;;2.50;99.90;;;;;;5112479;28;20458;-71
2021/04/06 06:45:50;;;;;;;11.90;11.30;;;2.60;99.90;;;;;;5027720;28;20466;-71
2021/04/06 06:48:28;;;;;;;12.50;11.20;;;2.70;99.90;;;;;;5028739;28;20455;-70
2021/04/06 06:50:54;;;;;;;11.17;10.23;;;2.60;99.90;;;;;;5074672;28;20484;-70
2021/04/06 06:53:37;;;;;;;11.40;10.87;;;2.70;99.90;;;;;;5112345;28;20455;-71
2021/04/06 06:56:05;;;;;;;10.47;9.90;;;2.60;99.90;;;;;;5112501;28;20451;-70
2021/04/06 06:58:34;;;;;;;11.33;10.63;;;2.70;99.90;;;;;;5112421;28;20445;-71
2021/04/06 07:01:00;;;;;;;11.20;10.50;;;2.90;99.90;;;;;;5112283;28;20446;-70
2021/04/06 07:03:27;;;;;;;12.40;11.33;;;2.90;99.90;;;;;;5112201;28;20449;-70
2021/04/06 07:05:53;;;;;;;11.20;10.03;;;3.10;99.90;;;;;;5111976;28;20445;-69
2021/04/06 07:08:31;;;;;;;11.70;10.97;;;3.30;99.90;;;;;;5111920;28;20476;-69
2021/04/06 07:11:00;;;;;;;12.30;11.40;;;3.60;99.90;;;;;;5112143;28;20832;-70
2021/04/06 07:13:31;;;;;;;11.83;11.17;;;3.70;99.90;;;;;;5112138;28;20547;-70
2021/04/06 07:15:59;;;;;;;12.03;11.13;;;3.70;99.90;;;;;;5110269;28;20988;-70
2021/04/06 07:18:27;;;;;;;11.33;10.70;;;3.60;99.90;;;;;;5112058;28;20488;-70
2021/04/06 07:20:57;;;;;;;12.23;11.27;;;3.60;99.90;;;;;;5111973;28;20499;-69
2021/04/06 07:23:33;;;;;;;11.90;10.93;;;3.80;99.90;;;;;;5112049;28;20524;-70
2021/04/06 07:26:01;;;;;;;11.43;10.77;;;3.80;99.90;;;;;;5112108;28;20474;-70
2021/04/06 07:28:27;;;;;;;10.80;10.20;;;3.70;99.90;;;;;;5112118;28;20451;-71
2021/04/06 07:30:53;;;;;;;12.20;11.50;;;3.80;99.90;;;;;;5111727;28;20579;-71
2021/04/06 07:33:21;;;;;;;10.80;10.00;;;3.80;99.90;;;;;;5123335;27;20456;-71
2021/04/06 07:35:48;;;;;;;12.67;11.33;;;3.90;99.90;;;;;;5132178;27;20441;-71
2021/04/06 07:38:15;;;;;;;11.20;10.67;;;4.00;99.90;;;;;;5132076;27;20488;-71
2021/04/06 07:40:42;;;;;;;11.50;10.70;;;4.10;99.90;;;;;;5132572;27;20434;-73
2021/04/06 07:43:09;;;;;;;9.83;9.33;;;4.20;99.90;;;;;;5132437;27;20449;-71
2021/04/06 07:45:40;;;;;;;11.10;10.50;;;4.30;99.90;;;;;;5132381;27;20461;-71
2021/04/06 07:48:07;;;;;;;11.00;10.20;;;4.70;99.90;;;;;;5127001;27;20840;-71
2021/04/06 07:50:37;;;;;;;10.80;10.30;;;5.00;99.90;;;;;;5120573;27;20492;-72
2021/04/06 07:53:21;;;;;;;13.47;12.27;;;5.20;99.90;;;;;;5123523;27;20443;-72
2021/04/06 07:55:47;;;;;;;16.20;14.70;;;5.10;99.90;;;;;;5132188;27;20937;-73
2021/04/06 07:58:47;;;;;;;13.33;12.17;;;5.00;99.90;;;;;;5112984;27;20448;-73
2021/04/06 08:01:17;;;;;;;12.57;11.77;;;5.20;99.90;;;;;;5111402;28;20517;-73
2021/04/06 08:04:06;;;;;;;11.70;10.77;;;5.70;99.90;;;;;;5111821;28;20514;-72
2021/04/06 08:06:44;;;;;;;11.47;10.60;;;5.70;99.90;;;;;;5129118;27;20439;-72
2021/04/06 08:09:44;;;;;;;11.00;10.40;;;5.40;99.90;;;;;;5132315;27;20548;-72
2021/04/06 08:12:12;;;;;;;11.10;10.40;;;5.30;99.90;;;;;;5068748;28;20483;-72
2021/04/06 08:14:42;;;;;;;11.60;10.57;;;5.30;99.90;;;;;;5119060;27;20496;-71
2021/04/06 08:17:43;;;;;;;13.03;11.43;;;5.60;99.90;;;;;;5131932;27;20466;-71
2021/04/06 08:20:22;;;;;;;11.60;10.87;;;5.90;99.90;;;;;;5131630;27;20472;-72
2021/04/06 08:22:55;;;;;;;12.33;11.53;;;5.80;98.80;;;;;;5121153;28;20448;-72
2021/04/06 08:25:43;;;;;;;11.77;10.90;;;5.80;99.10;;;;;;5111442;28;20467;-71
2021/04/06 08:28:36;;;;;;;11.80;10.60;;;5.60;99.40;;;;;;5111306;28;20443;-72
2021/04/06 08:31:34;;;;;;;11.37;10.73;;;5.50;99.70;;;;;;5111287;28;20490;-70
2021/04/06 08:34:39;;;;;;;13.30;10.30;;;5.60;99.90;;;;;;5129222;27;20518;-70
2021/04/06 08:37:13;;;;;;;10.97;10.27;;;5.80;99.80;;;;;;5131883;27;20478;-71
2021/04/06 08:39:41;;;;;;;10.37;9.87;;;5.70;99.90;;;;;;5131736;27;20459;-70
2021/04/06 08:42:10;;;;;;;11.43;10.57;;;5.50;99.50;;;;;;5137885;27;20461;-71
2021/04/06 08:44:37;;;;;;;14.90;10.97;;;5.50;99.90;;;;;;5139257;27;20958;-72
2021/04/06 08:47:04;;;;;;;12.47;11.47;;;5.40;99.90;;;;;;5131567;27;20500;-70
2021/04/06 08:49:31;;;;;;;11.93;10.90;;;5.40;99.90;;;;;;5131660;27;20456;-71
2021/04/06 08:51:58;;;;;;;9.97;9.30;;;5.30;99.90;;;;;;5131482;27;20488;-71
2021/04/06 08:54:28;;;;;;;11.10;10.30;;;5.40;99.90;;;;;;5131603;28;20455;-72
2021/04/06 08:56:57;;;;;;;12.43;11.30;;;5.30;99.90;;;;;;5121102;27;20523;-71
2021/04/06 08:59:31;;;;;;;13.77;12.60;;;5.20;99.90;;;;;;5111153;28;20496;-68
2021/04/06 09:01:59;;;;;;;11.00;9.93;;;5.00;99.90;;;;;;5111164;28;20451;-68
2021/04/06 09:04:27;;;;;;;11.20;10.33;;;4.70;99.90;;;;;;5111132;28;20446;-68
2021/04/06 09:06:53;;;;;;;11.30;10.50;;;4.70;99.90;;;;;;5110945;28;20464;-68
2021/04/06 09:09:21;;;;;;;10.33;9.73;;;4.70;99.90;;;;;;5110991;28;20449;-69
2021/04/06 09:11:49;;;;;;;11.70;11.00;;;4.80;99.90;;;;;;5111345;28;20487;-68
2021/04/06 09:14:17;;;;;;;12.57;11.70;;;5.00;99.90;;;;;;5114785;28;20450;-68
2021/04/06 09:16:43;;;;;;;10.67;10.07;;;5.20;99.90;;;;;;5114728;28;20471;-69
2021/04/06 09:19:11;;;;;;;9.63;9.13;;;5.30;99.90;;;;;;5114395;28;20481;-69
2021/04/06 09:21:39;;;;;;;11.83;10.77;;;5.40;99.90;;;;;;5114439;28;20433;-68
2021/04/06 09:24:08;;;;;;;11.50;10.80;;;5.40;99.90;;;;;;5114232;28;20457;-69
2021/04/06 09:26:35;;;;;;;10.83;10.37;;;5.80;99.90;;;;;;5114209;28;20491;-68
2021/04/06 09:29:07;;;;;;;11.23;10.60;;;6.00;99.90;;;;;;5114435;28;20451;-68
2021/04/06 09:31:36;;;;;;;10.70;10.10;;;6.00;99.70;;;;;;5114119;28;21060;-68
2021/04/06 09:34:15;;;;;;;10.57;9.97;;;6.00;99.70;;;;;;5132215;27;20451;-68
2021/04/06 09:36:42;;;;;;;11.37;10.60;;;6.00;99.90;;;;;;5135032;27;20453;-69
2021/04/06 09:39:10;;;;;;;11.00;10.30;;;6.00;99.90;;;;;;5134869;27;20447;-68
2021/04/06 09:41:40;;;;;;;11.20;10.60;;;5.70;99.90;;;;;;5134536;27;20441;-69
2021/04/06 09:44:10;;;;;;;12.17;11.47;;;5.70;99.90;;;;;;5135033;27;20512;-69
2021/04/06 09:46:40;;;;;;;11.00;10.40;;;5.70;99.90;;;;;;5134561;27;20457;-69
2021/04/06 09:49:08;;;;;;;11.00;10.00;;;5.70;99.90;;;;;;5134362;27;20489;-68
2021/04/06 09:51:35;;;;;;;10.97;10.17;;;5.90;99.90;;;;;;5134436;27;20535;-68
2021/04/06 09:54:04;;;;;;;11.07;10.27;;;5.70;99.50;;;;;;5134487;27;20442;-68
2021/04/06 09:56:31;;;;;;;10.53;9.60;;;5.60;99.90;;;;;;5127488;27;20447;-68
2021/04/06 09:58:57;;;;;;;10.70;10.10;;;5.60;99.70;;;;;;5114056;28;20450;-68
2021/04/06 10:01:26;;;;;;;11.13;10.17;;;5.50;99.20;;;;;;5113823;28;20445;-68
2021/04/06 10:03:56;;;;;;;10.27;9.77;;;6.00;99.90;;;;;;5113652;28;20441;-68
2021/04/06 10:06:37;;;;;;;11.03;10.20;;;6.60;98.50;;;;;;5113850;28;20441;-68
2021/04/06 10:09:21;;;;;;;11.57;10.77;;;6.60;96.70;;;;;;5113478;28;20964;-69
2021/04/06 10:11:49;;;;;;;11.57;10.67;;;6.70;97.60;;;;;;5113580;28;20488;-68
2021/04/06 10:14:15;;;;;;;11.23;10.40;;;6.60;96.80;;;;;;5113448;28;20449;-69
2021/04/06 10:16:42;;;;;;;11.63;10.93;;;6.30;97.20;;;;;;5113360;28;20466;-69
2021/04/06 10:19:21;;;;;;;11.10;10.30;;;6.40;97.30;;;;;;5113425;28;20484;-69
2021/04/06 10:22:01;;;;;;;11.60;10.93;;;6.80;96.50;;;;;;5113316;28;20811;-69
2021/04/06 10:24:29;;;;;;;10.30;9.70;;;7.40;94.60;;;;;;5113285;27;20449;-69
2021/04/06 10:27:18;;;;;;;10.90;10.33;;;7.80;94.60;;;;;;5113596;28;20796;-69
2021/04/06 10:29:45;;;;;;;11.70;10.73;;;7.90;94.20;;;;;;5113427;28;20949;-68
2021/04/06 10:32:30;;;;;;;10.73;10.10;;;7.60;93.10;;;;;;5115591;27;20500;-69
2021/04/06 10:35:00;;;;;;;11.00;10.20;;;7.50;93.10;;;;;;5133974;27;20457;-69
2021/04/06 10:37:45;;;;;;;11.60;10.70;;;7.40;92.80;;;;;;5133912;27;20866;-69
2021/04/06 10:40:28;;;;;;;11.67;11.03;;;8.00;91.90;;;;;;5133873;27;20524;-69
2021/04/06 10:42:57;;;;;;;11.43;10.67;;;7.80;90.60;;;;;;5132476;27;20452;-70
2021/04/06 10:45:26;;;;;;;9.80;9.40;;;7.80;91.90;;;;;;5133550;27;20864;-69
2021/04/06 10:47:53;;;;;;;10.83;9.90;;;8.10;92.00;;;;;;5133641;27;20453;-69
2021/04/06 10:50:29;;;;;;;10.67;10.17;;;9.80;88.80;;;;;;5133463;27;20440;-69
2021/04/06 10:52:55;;;;;;;10.93;10.40;;;10.80;80.10;;;;;;5133639;27;20538;-69
2021/04/06 10:55:33;;;;;;;11.23;10.63;;;11.00;79.10;;;;;;5133335;27;20942;-68
2021/04/06 10:57:59;;;;;;;10.43;9.67;;;10.70;77.30;;;;;;5113775;27;20468;-68
2021/04/06 11:00:28;;;;;;;11.20;10.50;;;10.20;77.10;;;;;;5112710;28;20462;-70
2021/04/06 11:03:15;;;;;;;10.63;9.97;;;10.50;80.30;;;;;;5112876;28;20452;-69
2021/04/06 11:05:43;;;;;;;11.63;10.67;;;10.40;78.50;;;;;;5112895;28;20458;-70
2021/04/06 11:08:20;;;;;;;12.07;11.20;;;9.60;80.90;;;;;;5128089;27;20501;-72
2021/04/06 11:10:47;;;;;;;11.50;10.67;;;9.20;80.90;;;;;;5133092;27;20480;-72
2021/04/06 11:13:14;;;;;;;10.33;9.73;;;8.80;80.40;;;;;;5133077;27;20448;-71
2021/04/06 11:15:41;;;;;;;10.53;9.93;;;8.40;83.80;;;;;;5132864;27;20476;-71
2021/04/06 11:18:08;;;;;;;11.47;10.33;;;8.40;83.50;;;;;;5132702;27;20471;-72
2021/04/06 11:20:35;;;;;;;11.17;10.57;;;8.80;82.20;;;;;;5132864;27;20447;-71
2021/04/06 11:23:02;;;;;;;11.63;10.80;;;8.30;81.80;;;;;;5132803;27;20445;-72
2021/04/06 11:25:28;;;;;;;12.23;11.23;;;8.10;83.90;;;;;;5133022;27;20444;-72
2021/04/06 11:27:58;;;;;;;10.10;9.60;;;8.40;84.20;;;;;;5132886;27;20441;-71
2021/04/06 11:30:31;;;;;;;10.97;10.37;;;8.00;82.80;;;;;;5132557;27;20515;-71
2021/04/06 11:32:58;;;;;;;9.10;8.70;;;7.50;83.90;;;;;;5132614;27;20531;-71
2021/04/06 11:35:24;;;;;;;9.60;9.17;;;7.10;83.70;;;;;;5131713;27;20489;-71
2021/04/06 11:37:50;;;;;;;10.40;9.70;;;7.30;83.40;;;;;;5132261;27;20448;-71
2021/04/06 11:40:18;;;;;;;9.70;9.10;;;8.80;80.20;;;;;;5132356;27;20513;-69
2021/04/06 11:42:44;;;;;;;11.10;10.50;;;9.70;74.10;;;;;;5139085;27;20471;-70
2021/04/06 11:45:12;;;;;;;11.80;11.10;;;10.00;71.20;;;;;;5139145;27;20448;-71
2021/04/06 11:47:38;;;;;;;10.53;10.03;;;10.30;69.00;;;;;;5132742;27;20479;-70
2021/04/06 11:50:06;;;;;;;9.83;9.43;;;9.40;71.10;;;;;;5132287;27;20452;-71
2021/04/06 11:52:33;;;;;;;10.83;10.23;;;8.50;73.80;;;;;;5132427;27;20513;-70
2021/04/06 11:55:00;;;;;;;10.43;9.83;;;8.40;74.70;;;;;;5132538;27;20442;-70
2021/04/06 11:57:27;;;;;;;11.13;10.63;;;8.20;76.20;;;;;;5132516;27;20452;-70
2021/04/06 11:59:55;;;;;;;12.17;10.93;;;8.00;78.40;;;;;;5132140;27;20455;-69
2021/04/06 12:02:22;;;;;;;9.73;9.33;;;8.30;74.90;;;;;;5132268;27;20441;-69
2021/04/06 12:04:48;;;;;;;9.43;8.77;;;7.80;76.90;;;;;;5132156;27;20940;-70
2021/04/06 12:07:15;;;;;;;12.57;11.87;;;7.90;76.90;;;;;;5132156;27;20448;-70
2021/04/06 12:09:41;;;;;;;10.53;9.53;;;8.60;75.70;;;;;;5132164;27;20441;-69
2021/04/06 12:12:08;;;;;;;10.80;9.87;;;8.60;73.80;;;;;;5132115;27;20571;-70
2021/04/06 12:14:35;;;;;;;9.67;9.20;;;7.70;74.70;;;;;;5132018;27;20461;-71
2021/04/06 12:17:01;;;;;;;10.93;10.20;;;7.70;73.30;;;;;;5132028;27;20502;-71
2021/04/06 12:19:27;;;;;;;9.77;9.30;;;8.00;73.60;;;;;;5132083;27;20488;-71
2021/04/06 12:21:53;;;;;;;10.50;10.03;;;8.50;73.40;;;;;;5132030;27;20478;-71
2021/04/06 12:24:20;;;;;;;10.67;9.97;;;9.30;73.70;;;;;;5131922;28;20476;-70
2021/04/06 12:26:46;;;;;;;12.03;11.33;;;10.20;68.70;;;;;;5132119;27;20450;-70
2021/04/06 12:29:12;;;;;;;11.07;10.43;;;10.90;67.40;;;;;;5132159;27;20448;-70
2021/04/06 12:31:39;;;;;;;11.10;10.10;;;11.90;64.30;;;;;;5131801;27;20533;-70
2021/04/06 12:34:05;;;;;;;11.37;10.67;;;12.50;63.00;;;;;;5131839;27;20477;-69
2021/04/06 12:36:31;;;;;;;11.30;10.80;;;13.20;58.90;;;;;;5131890;27;20456;-71
2021/04/06 12:38:58;;;;;;;10.73;10.23;;;13.10;55.90;;;;;;5131863;27;20448;-71
2021/04/06 12:41:24;;;;;;;10.90;10.20;;;12.90;57.30;;;;;;5131596;27;20452;-71
2021/04/06 12:43:50;;;;;;;10.87;10.27;;;12.90;56.30;;;;;;5131755;27;21069;-71
2021/04/06 12:46:16;;;;;;;10.90;10.40;;;13.60;55.50;;;;;;5133282;27;20508;-71
2021/04/06 12:48:43;;;;;;;11.20;10.33;;;13.80;54.60;;;;;;5136104;27;20452;-71
2021/04/06 12:51:10;;;;;;;11.33;10.43;;;14.80;53.90;;;;;;5136003;27;20488;-71
2021/04/06 12:53:36;;;;;;;11.33;10.73;;;15.50;51.60;;;;;;5135869;27;20451;-71
2021/04/06 12:56:02;;;;;;;11.27;10.57;;;15.00;49.00;;;;;;5135759;27;20448;-71